Maersk Bulan — 9V7693 — position and weather

sailwx.info

Track history (hours):
 
Tides and Currents Weather Stations Pressure Air Temp Water Temp Dewpoint Dewpoint Depression Visibility Wind Speed Wind Dir Waves Ship Positions

Maersk Bulan

Last reported at 2016-Jun-30 04:30 UTC. Time now 2016-Jun-30 05:05 UTC.
Position N 36°08' W 005°26'.

Length 223 m; draft 12 m.

Type: Ship (hazmat cat A). MMSI: 563455000.

Date/timePositionNaut miles runAvg speedWind from/ knotsBaromVisibWave heightAir tempDewpointWater temp
2016-Jun-30 04:30N 36°08' W 005°26'0 0.0
2016-Jun-30 03:33N 36°08' W 005°26'0 0.0
2016-Jun-30 02:33N 36°08' W 005°26'0 0.0
2016-Jun-30 01:33N 36°08' W 005°26'0 0.0
2016-Jun-30 00:30N 36°08' W 005°26'0 0.0
2016-Jun-29 23:33N 36°08' W 005°26'0 0.0
2016-Jun-29 22:33N 36°08' W 005°26'0 0.0
2016-Jun-29 21:33N 36°08' W 005°26'0 0.0
2016-Jun-29 20:33N 36°08' W 005°26'0 0.0
2016-Jun-29 19:27N 36°08' W 005°26'0 0.0
2016-Jun-29 18:33N 36°08' W 005°26'0 0.0
2016-Jun-29 17:33N 36°08' W 005°26'0 0.0
2016-Jun-29 16:33N 36°08' W 005°26'0 0.0
2016-Jun-29 15:33N 36°08' W 005°26'0 0.0
2016-Jun-29 14:33N 36°08' W 005°26'0 0.0
2016-Jun-29 13:33N 36°08' W 005°26'0 0.0
2016-Jun-29 12:33N 36°08' W 005°26'0 0.0
2016-Jun-29 11:33N 36°08' W 005°26'0 0.0
2016-Jun-29 10:33N 36°08' W 005°26'0 0.0
2016-Jun-29 09:33N 36°08' W 005°26'0 0.0
2016-Jun-29 08:24N 36°08' W 005°26'0 0.0
2016-Jun-29 07:33N 36°08' W 005°26'4 4.3
2016-Jun-29 06:33N 36°05' W 005°23'0 0.3
2016-Jun-29 05:33N 36°04' W 005°23'0 0.3
2016-Jun-29 04:33N 36°05' W 005°23'0 0.3
2016-Jun-29 03:33N 36°05' W 005°23'9 8.6
2016-Jun-29 02:33N 36°04' W 005°12'2 1.7
2016-Jun-29 01:33N 36°05' W 005°12'4 4.0
2016-Jun-29 00:33N 36°06' W 005°17'2 1.9
2016-Jun-28 23:33N 36°04' W 005°16'1110.9
2016-Jun-28 22:33N 35°58' W 005°26'22110.4
2016-Jun-28 01:19N 35°46' W 009°59'810.5
2016-Jun-28 00:33N 35°46' W 010°09'2010.1
2016-Jun-27 22:33N 35°46' W 010°34'1010.0
2016-Jun-27 21:31N 35°46' W 010°46'10 9.9
2016-Jun-27 20:33N 35°45' W 010°58'10 9.7
2016-Jun-27 19:33N 35°45' W 011°10'10 9.8
2016-Jun-27 18:33N 35°44' W 011°22'8513.9
2016-Jun-27 12:25N 35°42' W 013°07'1816.3
2016-Jun-27 11:17N 35°41' W 013°30'  
Track history (hours):
 
Tides and Currents Weather Stations Pressure Air Temp Water Temp Dewpoint Dewpoint Depression Visibility Wind Speed Wind Dir Waves Ship Positions

Maersk Bulan

Last reported at 2016-Jun-30 04:30 UTC. Time now 2016-Jun-30 05:05 UTC.
Position N 36°08' W 005°26'.

Length 223 m; draft 12 m.

Type: Ship (hazmat cat A). MMSI: 563455000.

Date/timePositionNaut miles runAvg speedWind from/ knotsBaromVisibWave heightAir tempDewpointWater temp
2016-Jun-30 04:30N 36°08' W 005°26'0 0.0
2016-Jun-30 03:33N 36°08' W 005°26'0 0.0
2016-Jun-30 02:33N 36°08' W 005°26'0 0.0
2016-Jun-30 01:33N 36°08' W 005°26'0 0.0
2016-Jun-30 00:30N 36°08' W 005°26'0 0.0
2016-Jun-29 23:33N 36°08' W 005°26'0 0.0
2016-Jun-29 22:33N 36°08' W 005°26'0 0.0
2016-Jun-29 21:33N 36°08' W 005°26'0 0.0
2016-Jun-29 20:33N 36°08' W 005°26'0 0.0
2016-Jun-29 19:27N 36°08' W 005°26'0 0.0
2016-Jun-29 18:33N 36°08' W 005°26'0 0.0
2016-Jun-29 17:33N 36°08' W 005°26'0 0.0
2016-Jun-29 16:33N 36°08' W 005°26'0 0.0
2016-Jun-29 15:33N 36°08' W 005°26'0 0.0
2016-Jun-29 14:33N 36°08' W 005°26'0 0.0
2016-Jun-29 13:33N 36°08' W 005°26'0 0.0
2016-Jun-29 12:33N 36°08' W 005°26'0 0.0
2016-Jun-29 11:33N 36°08' W 005°26'0 0.0
2016-Jun-29 10:33N 36°08' W 005°26'0 0.0
2016-Jun-29 09:33N 36°08' W 005°26'0 0.0
2016-Jun-29 08:24N 36°08' W 005°26'0 0.0
2016-Jun-29 07:33N 36°08' W 005°26'4 4.3
2016-Jun-29 06:33N 36°05' W 005°23'0 0.3
2016-Jun-29 05:33N 36°04' W 005°23'0 0.3
2016-Jun-29 04:33N 36°05' W 005°23'0 0.3
2016-Jun-29 03:33N 36°05' W 005°23'9 8.6
2016-Jun-29 02:33N 36°04' W 005°12'2 1.7
2016-Jun-29 01:33N 36°05' W 005°12'4 4.0
2016-Jun-29 00:33N 36°06' W 005°17'2 1.9
2016-Jun-28 23:33N 36°04' W 005°16'1110.9
2016-Jun-28 22:33N 35°58' W 005°26'22110.4
2016-Jun-28 01:19N 35°46' W 009°59'810.5
2016-Jun-28 00:33N 35°46' W 010°09'2010.1
2016-Jun-27 22:33N 35°46' W 010°34'1010.0
2016-Jun-27 21:31N 35°46' W 010°46'10 9.9
2016-Jun-27 20:33N 35°45' W 010°58'10 9.7
2016-Jun-27 19:33N 35°45' W 011°10'10 9.8
2016-Jun-27 18:33N 35°44' W 011°22'8513.9
2016-Jun-27 12:25N 35°42' W 013°07'1816.3
2016-Jun-27 11:17N 35°41' W 013°30'  

Dump ship's entire track history